TimeEDT,TemperatureF,Dew PointF,Humidity,Sea Level PressureIn,VisibilityMPH,Wind Direction,Wind SpeedMPH,Gust SpeedMPH,PrecipitationIn,Events,Conditions,WindDirDegrees,DateUTC
12:15 AM,64.4,64.4,100,30.05,1.2,Calm,Calm,-,N/A,,Overcast,0,2013-07-30 04:15:00
12:35 AM,64.4,64.4,100,30.05,1.0,Calm,Calm,-,N/A,,Overcast,0,2013-07-30 04:35:00
12:55 AM,62.6,62.6,100,30.05,1.2,Calm,Calm,-,N/A,,Overcast,0,2013-07-30 04:55:00
1:15 AM,62.6,62.6,100,30.06,0.5,Calm,Calm,-,N/A,,Overcast,0,2013-07-30 05:15:00
1:35 AM,62.6,62.6,100,30.05,0.8,Calm,Calm,-,N/A,,Overcast,0,2013-07-30 05:35:00
1:55 AM,62.6,62.6,100,30.04,0.5,East,3.5,-,N/A,,Overcast,90,2013-07-30 05:55:00
2:15 AM,62.6,60.8,94,30.04,0.5,ESE,4.6,-,N/A,,Overcast,110,2013-07-30 06:15:00
2:35 AM,62.6,62.6,100,30.03,1.0,ESE,3.5,-,N/A,,Overcast,110,2013-07-30 06:35:00
2:55 AM,62.6,60.8,94,30.04,0.5,Calm,Calm,-,N/A,,Overcast,0,2013-07-30 06:55:00
3:15 AM,62.6,62.6,100,30.03,0.2,ENE,3.5,-,N/A,,Overcast,60,2013-07-30 07:15:00
3:35 AM,62.6,62.6,100,30.02,0.2,ENE,3.5,-,N/A,,Overcast,70,2013-07-30 07:35:00
3:55 AM,62.6,62.6,100,30.02,0.5,Calm,Calm,-,N/A,,Overcast,0,2013-07-30 07:55:00
4:15 AM,62.6,62.6,100,30.01,0.8,Calm,Calm,-,N/A,,Overcast,0,2013-07-30 08:15:00
4:35 AM,62.6,62.6,100,30.02,2.5,Calm,Calm,-,N/A,,Overcast,0,2013-07-30 08:35:00
4:55 AM,62.6,62.6,100,30.02,2.0,Calm,Calm,-,N/A,,Overcast,0,2013-07-30 08:55:00
5:15 AM,62.6,60.8,94,30.02,0.5,Calm,Calm,-,N/A,,Overcast,0,2013-07-30 09:15:00
5:35 AM,62.6,60.8,94,30.02,0.5,East,3.5,-,N/A,,Overcast,90,2013-07-30 09:35:00
5:55 AM,62.6,60.8,94,30.03,1.2,Calm,Calm,-,N/A,,Overcast,0,2013-07-30 09:55:00
6:15 AM,62.6,62.6,100,30.02,1.2,Calm,Calm,-,N/A,,Overcast,0,2013-07-30 10:15:00
6:35 AM,62.6,62.6,100,30.02,1.2,Calm,Calm,-,N/A,,Overcast,0,2013-07-30 10:35:00
6:55 AM,62.6,62.6,100,30.03,1.5,Calm,Calm,-,N/A,,Overcast,0,2013-07-30 10:55:00
7:15 AM,62.6,62.6,100,30.03,1.5,Calm,Calm,-,N/A,,Overcast,0,2013-07-30 11:15:00
7:35 AM,62.6,62.6,100,30.04,1.5,Calm,Calm,-,N/A,,Overcast,0,2013-07-30 11:35:00
7:55 AM,62.6,62.6,100,30.03,1.2,Calm,Calm,-,N/A,,Overcast,0,2013-07-30 11:55:00
8:15 AM,64.4,62.6,94,30.03,2.5,Calm,Calm,-,N/A,,Overcast,0,2013-07-30 12:15:00
8:35 AM,64.4,64.4,100,30.03,10.0,Calm,Calm,-,N/A,,Overcast,0,2013-07-30 12:35:00
8:55 AM,66.2,64.4,94,30.03,10.0,Calm,Calm,-,N/A,,Overcast,0,2013-07-30 12:55:00
9:15 AM,64.4,62.6,94,30.04,10.0,Calm,Calm,-,N/A,,Overcast,0,2013-07-30 13:15:00
9:35 AM,66.2,64.4,94,30.03,10.0,Calm,Calm,-,N/A,,Overcast,0,2013-07-30 13:35:00
9:55 AM,66.2,66.2,100,30.03,10.0,Calm,Calm,-,N/A,,Overcast,0,2013-07-30 13:55:00
10:15 AM,66.2,66.2,100,30.03,10.0,SE,3.5,-,N/A,,Overcast,140,2013-07-30 14:15:00
10:35 AM,68.0,66.2,94,30.03,10.0,ENE,3.5,-,N/A,,Overcast,70,2013-07-30 14:35:00
10:55 AM,69.8,66.2,88,30.03,10.0,NE,3.5,-,N/A,,Overcast,40,2013-07-30 14:55:00
11:15 AM,71.6,66.2,83,30.02,10.0,NNW,8.1,-,N/A,,Overcast,340,2013-07-30 15:15:00
11:35 AM,71.6,64.4,78,30.02,10.0,NNW,5.8,-,N/A,,Overcast,330,2013-07-30 15:35:00
11:55 AM,73.4,64.4,73,30.02,10.0,NNW,5.8,-,N/A,,Mostly Cloudy,330,2013-07-30 15:55:00
12:15 PM,73.4,64.4,73,30.01,10.0,NNW,8.1,-,N/A,,Overcast,340,2013-07-30 16:15:00
12:35 PM,73.4,64.4,73,30.01,10.0,NNW,4.6,-,N/A,,Mostly Cloudy,330,2013-07-30 16:35:00
12:55 PM,75.2,64.4,69,30.00,10.0,WNW,4.6,-,N/A,,Scattered Clouds,300,2013-07-30 16:55:00
1:15 PM,75.2,64.4,69,30.00,10.0,NNW,5.8,-,N/A,,Scattered Clouds,330,2013-07-30 17:15:00
1:35 PM,75.2,62.6,65,29.99,10.0,NNW,3.5,-,N/A,,Partly Cloudy,330,2013-07-30 17:35:00
1:55 PM,77.0,60.8,57,29.99,10.0,NNW,5.8,-,N/A,,Scattered Clouds,330,2013-07-30 17:55:00
2:15 PM,77.0,60.8,57,29.99,10.0,North,5.8,-,N/A,,Mostly Cloudy,360,2013-07-30 18:15:00
2:35 PM,78.8,60.8,54,29.98,10.0,NW,8.1,-,N/A,,Scattered Clouds,320,2013-07-30 18:35:00
2:55 PM,78.8,60.8,54,29.98,10.0,NW,6.9,-,N/A,,Mostly Cloudy,310,2013-07-30 18:55:00
3:15 PM,78.8,59.0,51,29.98,10.0,West,6.9,-,N/A,,Mostly Cloudy,270,2013-07-30 19:15:00
3:35 PM,78.8,59.0,51,29.98,10.0,West,6.9,-,N/A,,Partly Cloudy,270,2013-07-30 19:35:00
3:55 PM,78.8,57.2,47,29.98,10.0,NNW,6.9,-,N/A,,Scattered Clouds,330,2013-07-30 19:55:00
4:15 PM,78.8,57.2,47,29.98,10.0,WNW,9.2,-,N/A,,Scattered Clouds,300,2013-07-30 20:15:00
4:35 PM,78.8,59.0,51,29.98,10.0,West,5.8,-,N/A,,Partly Cloudy,280,2013-07-30 20:35:00
4:55 PM,77.0,60.8,57,29.98,10.0,West,4.6,-,N/A,,Scattered Clouds,270,2013-07-30 20:55:00
5:15 PM,78.8,57.2,47,29.98,10.0,WNW,5.8,-,N/A,,Partly Cloudy,290,2013-07-30 21:15:00
5:35 PM,78.8,57.2,47,29.98,10.0,West,8.1,-,N/A,,Clear,270,2013-07-30 21:35:00
5:55 PM,75.2,57.2,53,29.99,10.0,West,3.5,-,N/A,,Partly Cloudy,270,2013-07-30 21:55:00
6:15 PM,75.2,60.8,61,29.99,10.0,Calm,Calm,-,N/A,,Mostly Cloudy,0,2013-07-30 22:15:00
6:35 PM,77.0,57.2,50,29.99,10.0,WNW,5.8,-,N/A,,Overcast,300,2013-07-30 22:35:00
6:55 PM,75.2,59.0,57,29.99,10.0,WNW,3.5,-,N/A,,Scattered Clouds,290,2013-07-30 22:55:00
7:15 PM,73.4,60.8,65,29.99,10.0,Calm,Calm,-,N/A,,Partly Cloudy,0,2013-07-30 23:15:00
7:35 PM,69.8,62.6,78,30.00,10.0,SW,6.9,-,N/A,,Partly Cloudy,220,2013-07-30 23:35:00
7:55 PM,69.8,62.6,78,30.00,10.0,SW,4.6,-,N/A,,Partly Cloudy,220,2013-07-30 23:55:00
8:15 PM,68.0,62.6,83,30.01,10.0,SW,3.5,-,N/A,,Clear,220,2013-07-31 00:15:00
8:35 PM,66.2,62.6,88,30.01,10.0,SSW,5.8,-,N/A,,Clear,210,2013-07-31 00:35:00
8:55 PM,66.2,62.6,88,30.02,10.0,SSW,5.8,-,N/A,,Clear,210,2013-07-31 00:55:00
9:15 PM,64.4,62.6,94,30.02,10.0,SW,4.6,-,N/A,,Scattered Clouds,220,2013-07-31 01:15:00
9:35 PM,66.2,62.6,88,30.03,10.0,SW,3.5,-,N/A,,Scattered Clouds,230,2013-07-31 01:35:00
9:55 PM,64.4,62.6,94,30.03,10.0,SW,4.6,-,N/A,,Clear,230,2013-07-31 01:55:00
10:15 PM,64.4,62.6,94,30.03,10.0,WSW,3.5,-,N/A,,Clear,240,2013-07-31 02:15:00
10:35 PM,64.4,60.8,88,30.04,10.0,WSW,3.5,-,N/A,,Partly Cloudy,240,2013-07-31 02:35:00
10:55 PM,64.4,60.8,88,30.04,10.0,Calm,Calm,-,N/A,,Scattered Clouds,0,2013-07-31 02:55:00
11:15 PM,62.6,60.8,94,30.04,10.0,Calm,Calm,-,N/A,,Partly Cloudy,0,2013-07-31 03:15:00
11:35 PM,62.6,60.8,94,30.04,10.0,Calm,Calm,-,N/A,,Clear,0,2013-07-31 03:35:00
11:55 PM,62.6,60.8,94,30.04,10.0,Calm,Calm,-,N/A,,Clear,0,2013-07-31 03:55:00